Time;durP1;ratioP1;P1;durP2;ratioP2;P2;SDS_P1;SDS_P2;PMS_P1;PMS_P2;Temp;Humidity;BMP_temperature;BMP_pressure;BME280_temperature;BME280_humidity;BME280_pressure;Samples;Min_cycle;Max_cycle;Signal;HPM_P1;HPM_P2
2023/04/30 00:00:12;;;;;;;13.13;4.07;;;;;;;;;;5092285;27;20699;-68
2023/04/30 00:02:38;;;;;;;13.48;4.22;;;;;;;;;;5091592;27;20505;-68
2023/04/30 00:05:05;;;;;;;7.25;3.33;;;;;;;;;;5094306;27;20130;-68
2023/04/30 00:07:31;;;;;;;8.10;3.03;;;;;;;;;;5091737;27;20040;-68
2023/04/30 00:09:57;;;;;;;8.20;3.25;;;;;;;;;;5094235;27;20039;-68
2023/04/30 00:12:23;;;;;;;10.75;3.42;;;;;;;;;;5082978;28;20058;-68
2023/04/30 00:14:50;;;;;;;13.23;3.08;;;;;;;;;;5079148;27;20054;-67
2023/04/30 00:17:16;;;;;;;13.52;4.05;;;;;;;;;;5080290;27;20097;-68
2023/04/30 00:19:42;;;;;;;12.82;3.60;;;;;;;;;;5071525;27;20048;-68
2023/04/30 00:22:09;;;;;;;7.97;3.25;;;;;;;;;;5089051;28;20131;-68
2023/04/30 00:24:35;;;;;;;9.75;3.63;;;;;;;;;;5088044;27;20131;-68
2023/04/30 00:27:01;;;;;;;8.50;3.83;;;;;;;;;;5090515;28;20051;-68
2023/04/30 00:29:27;;;;;;;8.02;3.08;;;;;;;;;;5080618;28;20059;-68
2023/04/30 00:31:53;;;;;;;8.75;3.75;;;;;;;;;;5089381;27;20047;-68
2023/04/30 00:34:19;;;;;;;12.43;4.28;;;;;;;;;;5087889;27;20806;-68
2023/04/30 00:36:45;;;;;;;13.25;4.00;;;;;;;;;;5090728;27;20058;-68
2023/04/30 00:39:11;;;;;;;11.40;4.25;;;;;;;;;;5090304;28;20050;-68
2023/04/30 00:41:38;;;;;;;9.88;4.40;;;;;;;;;;5092012;28;20059;-68
2023/04/30 00:44:05;;;;;;;16.17;4.20;;;;;;;;;;5089709;28;20046;-68
2023/04/30 00:46:31;;;;;;;10.23;4.60;;;;;;;;;;5093102;28;20549;-68
2023/04/30 00:48:58;;;;;;;11.57;3.92;;;;;;;;;;5094814;27;20116;-68
2023/04/30 00:51:26;;;;;;;9.20;3.70;;;;;;;;;;5094753;28;21800;-67
2023/04/30 00:53:52;;;;;;;7.13;3.05;;;;;;;;;;5096194;27;20036;-68
2023/04/30 00:56:18;;;;;;;14.55;5.53;;;;;;;;;;5088859;28;21849;-68
2023/04/30 00:58:45;;;;;;;11.73;3.58;;;;;;;;;;5089663;27;20158;-68
2023/04/30 01:01:11;;;;;;;10.77;4.05;;;;;;;;;;5072848;28;20052;-68
2023/04/30 01:03:37;;;;;;;8.38;3.88;;;;;;;;;;5088446;28;20118;-68
2023/04/30 01:06:04;;;;;;;9.48;3.35;;;;;;;;;;5074441;28;20571;-68
2023/04/30 01:08:30;;;;;;;14.65;4.43;;;;;;;;;;5079162;28;20095;-68
2023/04/30 01:10:57;;;;;;;10.75;4.88;;;;;;;;;;5093264;28;20079;-68
2023/04/30 01:13:29;;;;;;;9.32;4.22;;;;;;;;;;5079628;28;20069;-68
2023/04/30 01:16:10;;;;;;;11.55;4.90;;;;;;;;;;5073031;28;20035;-68
2023/04/30 01:18:41;;;;;;;9.88;4.22;;;;;;;;;;5093698;28;20609;-68
2023/04/30 01:21:08;;;;;;;16.17;4.93;;;;;;;;;;5090816;28;20043;-68
2023/04/30 01:23:52;;;;;;;11.45;4.05;;;;;;;;;;5096172;28;20089;-68
2023/04/30 01:26:18;;;;;;;13.65;5.55;;;;;;;;;;5078716;28;20086;-68
2023/04/30 01:28:46;;;;;;;12.82;5.70;;;;;;;;;;5088910;28;20392;-67
2023/04/30 01:31:14;;;;;;;15.77;5.32;;;;;;;;;;5091033;28;20044;-68
2023/04/30 01:33:40;;;;;;;12.88;4.88;;;;;;;;;;5097116;28;20042;-68
2023/04/30 01:36:07;;;;;;;12.85;4.88;;;;;;;;;;5073953;28;20074;-67
2023/04/30 01:38:34;;;;;;;11.82;5.25;;;;;;;;;;5092853;28;20036;-68
2023/04/30 01:41:08;;;;;;;13.50;5.10;;;;;;;;;;5090030;28;20109;-68
2023/04/30 01:44:00;;;;;;;13.07;4.88;;;;;;;;;;5092717;28;20046;-67
2023/04/30 01:46:28;;;;;;;11.45;4.93;;;;;;;;;;5089287;28;20035;-68
2023/04/30 01:49:09;;;;;;;17.90;4.88;;;;;;;;;;5094654;28;20050;-68
2023/04/30 01:51:40;;;;;;;18.20;5.03;;;;;;;;;;5075011;28;20044;-68
2023/04/30 01:54:13;;;;;;;20.00;4.75;;;;;;;;;;5093675;28;20054;-68
2023/04/30 01:56:44;;;;;;;13.45;5.13;;;;;;;;;;5073795;28;20054;-68
2023/04/30 01:59:11;;;;;;;13.98;5.28;;;;;;;;;;5096325;28;20469;-68
2023/04/30 02:01:37;;;;;;;11.00;4.07;;;;;;;;;;5069487;28;20480;-68
2023/04/30 02:04:03;;;;;;;13.85;4.55;;;;;;;;;;5091418;28;20036;-68
2023/04/30 02:06:30;;;;;;;14.98;4.28;;;;;;;;;;5090418;28;20089;-68
2023/04/30 02:09:01;;;;;;;9.25;3.60;;;;;;;;;;5071168;28;20108;-68
2023/04/30 02:11:28;;;;;;;9.60;4.78;;;;;;;;;;5086360;28;20058;-68
2023/04/30 02:13:54;;;;;;;8.77;4.03;;;;;;;;;;5092558;28;20036;-67
2023/04/30 02:16:20;;;;;;;9.80;3.80;;;;;;;;;;5091361;28;20052;-68
2023/04/30 02:18:47;;;;;;;8.07;3.92;;;;;;;;;;5075080;28;20040;-68
2023/04/30 02:21:13;;;;;;;8.48;3.72;;;;;;;;;;5074094;28;20131;-67
2023/04/30 02:23:40;;;;;;;9.10;3.97;;;;;;;;;;5073350;28;20501;-68
2023/04/30 02:26:06;;;;;;;11.70;4.20;;;;;;;;;;5089635;28;20941;-68
2023/04/30 02:28:32;;;;;;;13.05;4.68;;;;;;;;;;5072911;28;20147;-68
2023/04/30 02:30:59;;;;;;;9.82;4.82;;;;;;;;;;5091666;28;20052;-67
2023/04/30 02:33:25;;;;;;;11.38;4.63;;;;;;;;;;5075034;28;20040;-68
2023/04/30 02:35:51;;;;;;;12.25;4.32;;;;;;;;;;5094900;28;20074;-68
2023/04/30 02:38:17;;;;;;;8.85;3.88;;;;;;;;;;5074134;28;20060;-68
2023/04/30 02:40:43;;;;;;;17.20;4.68;;;;;;;;;;5089977;27;20042;-68
2023/04/30 02:43:09;;;;;;;9.23;3.85;;;;;;;;;;5091009;27;20095;-68
2023/04/30 02:45:35;;;;;;;12.07;5.03;;;;;;;;;;5090319;27;20040;-68
2023/04/30 02:48:01;;;;;;;11.77;3.95;;;;;;;;;;5098732;27;20046;-68
2023/04/30 02:50:27;;;;;;;15.65;4.03;;;;;;;;;;5074962;28;20067;-68
2023/04/30 02:52:54;;;;;;;12.02;4.28;;;;;;;;;;5097395;28;20036;-68
2023/04/30 02:55:21;;;;;;;12.35;3.83;;;;;;;;;;5096818;27;20510;-68
2023/04/30 02:57:47;;;;;;;10.75;4.32;;;;;;;;;;5075086;27;20632;-68
2023/04/30 03:00:13;;;;;;;13.07;3.85;;;;;;;;;;5073541;27;20040;-68
2023/04/30 03:02:39;;;;;;;11.60;4.38;;;;;;;;;;5101222;28;20044;-68
2023/04/30 03:05:06;;;;;;;10.10;4.07;;;;;;;;;;5096801;27;20052;-68
2023/04/30 03:07:32;;;;;;;11.13;3.90;;;;;;;;;;5097558;27;20051;-68
2023/04/30 03:09:58;;;;;;;11.48;5.15;;;;;;;;;;5098624;28;20438;-68
2023/04/30 03:12:24;;;;;;;7.97;4.00;;;;;;;;;;5089370;27;20121;-68
2023/04/30 03:14:51;;;;;;;9.63;4.47;;;;;;;;;;5092023;27;20059;-67
2023/04/30 03:17:17;;;;;;;9.93;4.70;;;;;;;;;;5088725;27;20126;-66
2023/04/30 03:19:43;;;;;;;10.00;4.43;;;;;;;;;;5088595;27;20059;-67
2023/04/30 03:22:10;;;;;;;10.43;3.97;;;;;;;;;;5092301;27;20402;-67
2023/04/30 03:24:36;;;;;;;9.43;3.70;;;;;;;;;;5089927;27;20048;-68
2023/04/30 03:27:02;;;;;;;13.57;4.10;;;;;;;;;;5091272;28;20428;-67
2023/04/30 03:29:29;;;;;;;10.77;4.20;;;;;;;;;;5093512;27;20144;-67
2023/04/30 03:31:55;;;;;;;12.20;4.18;;;;;;;;;;5094042;28;20425;-67
2023/04/30 03:34:21;;;;;;;8.13;3.92;;;;;;;;;;5069441;28;20070;-67
2023/04/30 03:36:47;;;;;;;6.80;3.70;;;;;;;;;;5094447;27;20085;-68
2023/04/30 03:39:14;;;;;;;10.05;3.75;;;;;;;;;;5087841;28;20422;-67
2023/04/30 03:41:41;;;;;;;8.57;3.92;;;;;;;;;;5088589;28;20056;-68
2023/04/30 03:44:14;;;;;;;16.50;4.43;;;;;;;;;;5089123;27;20036;-67
2023/04/30 03:46:40;;;;;;;9.65;3.60;;;;;;;;;;5088691;27;20411;-68
2023/04/30 03:49:06;;;;;;;8.65;4.18;;;;;;;;;;5091375;27;20200;-68
2023/04/30 03:51:32;;;;;;;14.30;4.32;;;;;;;;;;5092724;27;20044;-67
2023/04/30 03:53:58;;;;;;;8.35;3.85;;;;;;;;;;5090688;27;20463;-67
2023/04/30 03:56:25;;;;;;;12.10;3.50;;;;;;;;;;5095163;28;20127;-68
2023/04/30 03:58:51;;;;;;;12.32;4.45;;;;;;;;;;5090668;27;20063;-67
2023/04/30 04:01:17;;;;;;;14.02;3.85;;;;;;;;;;5073114;28;20094;-67
2023/04/30 04:03:44;;;;;;;10.00;3.45;;;;;;;;;;5074976;28;20036;-67
2023/04/30 04:06:10;;;;;;;10.57;3.65;;;;;;;;;;5069497;28;20050;-67
2023/04/30 04:08:36;;;;;;;13.63;4.07;;;;;;;;;;5090780;27;20047;-68
2023/04/30 04:11:02;;;;;;;9.07;3.53;;;;;;;;;;5068989;28;20074;-67
2023/04/30 04:13:28;;;;;;;11.65;3.92;;;;;;;;;;5087282;27;20036;-68
2023/04/30 04:15:54;;;;;;;13.73;3.80;;;;;;;;;;5091825;27;20050;-67
2023/04/30 04:18:20;;;;;;;8.27;3.65;;;;;;;;;;5072809;28;20054;-68
2023/04/30 04:20:46;;;;;;;9.85;3.70;;;;;;;;;;5075710;28;20036;-68
2023/04/30 04:23:13;;;;;;;9.65;3.50;;;;;;;;;;5104440;28;20039;-68
2023/04/30 04:25:40;;;;;;;9.38;4.20;;;;;;;;;;5081681;28;20151;-67
2023/04/30 04:28:06;;;;;;;10.68;3.80;;;;;;;;;;5097431;28;20052;-67
2023/04/30 04:30:33;;;;;;;16.08;3.42;;;;;;;;;;5098804;28;20068;-68
2023/04/30 04:32:59;;;;;;;8.48;3.30;;;;;;;;;;5100466;28;20375;-68
2023/04/30 04:35:26;;;;;;;13.25;4.95;;;;;;;;;;5054547;28;20123;-67
2023/04/30 04:37:52;;;;;;;13.57;3.97;;;;;;;;;;5094945;28;20046;-68
2023/04/30 04:40:18;;;;;;;11.82;3.80;;;;;;;;;;5077411;28;20040;-68
2023/04/30 04:42:45;;;;;;;11.10;3.97;;;;;;;;;;5091607;28;20131;-68
2023/04/30 04:45:11;;;;;;;12.20;3.80;;;;;;;;;;5096139;28;20048;-68
2023/04/30 04:47:37;;;;;;;10.20;3.50;;;;;;;;;;5075087;28;20051;-67
2023/04/30 04:50:04;;;;;;;12.23;3.63;;;;;;;;;;5093810;28;20544;-68
2023/04/30 04:52:30;;;;;;;14.45;3.67;;;;;;;;;;5095067;28;20127;-68
2023/04/30 04:54:56;;;;;;;13.10;5.00;;;;;;;;;;5091459;27;20411;-68
2023/04/30 04:57:22;;;;;;;12.82;4.07;;;;;;;;;;5090511;27;20072;-68
2023/04/30 04:59:48;;;;;;;10.20;3.50;;;;;;;;;;5096265;27;20043;-68
2023/04/30 05:02:14;;;;;;;11.52;4.50;;;;;;;;;;5076202;28;20055;-67
2023/04/30 05:04:40;;;;;;;9.57;3.58;;;;;;;;;;5089531;28;20120;-68
2023/04/30 05:07:06;;;;;;;16.05;4.68;;;;;;;;;;5096420;28;20089;-68
2023/04/30 05:09:33;;;;;;;13.52;3.20;;;;;;;;;;5072623;28;20505;-68
2023/04/30 05:11:59;;;;;;;16.17;3.75;;;;;;;;;;5093172;27;20036;-68
2023/04/30 05:14:25;;;;;;;14.93;4.25;;;;;;;;;;5095512;28;20036;-68
2023/04/30 05:16:51;;;;;;;8.25;3.60;;;;;;;;;;5094273;28;20035;-68
2023/04/30 05:19:17;;;;;;;12.48;3.85;;;;;;;;;;5097781;28;20031;-68
2023/04/30 05:21:43;;;;;;;14.70;4.88;;;;;;;;;;5092281;28;20044;-68
2023/04/30 05:24:10;;;;;;;14.35;3.70;;;;;;;;;;5076217;28;20126;-68
2023/04/30 05:26:36;;;;;;;9.38;3.47;;;;;;;;;;5094545;28;20064;-67
2023/04/30 05:29:02;;;;;;;10.15;3.40;;;;;;;;;;5093322;28;20040;-68
2023/04/30 05:31:28;;;;;;;13.60;3.45;;;;;;;;;;5093014;28;20459;-68
2023/04/30 05:33:54;;;;;;;11.77;3.65;;;;;;;;;;5072681;28;20080;-68
2023/04/30 05:36:20;;;;;;;17.25;4.07;;;;;;;;;;5072111;28;20416;-68
2023/04/30 05:38:46;;;;;;;11.38;3.42;;;;;;;;;;5074729;28;20051;-66
2023/04/30 05:41:12;;;;;;;13.00;4.10;;;;;;;;;;5093273;28;20066;-68
2023/04/30 05:43:39;;;;;;;11.00;3.53;;;;;;;;;;5076425;28;20412;-67
2023/04/30 05:46:05;;;;;;;12.15;3.33;;;;;;;;;;5090757;28;20048;-67
2023/04/30 05:48:31;;;;;;;12.93;2.92;;;;;;;;;;5096681;28;20065;-68
2023/04/30 05:50:57;;;;;;;19.83;3.42;;;;;;;;;;5093345;28;20468;-67
2023/04/30 05:53:23;;;;;;;10.88;3.25;;;;;;;;;;5077768;28;20146;-68
2023/04/30 05:55:50;;;;;;;11.73;3.30;;;;;;;;;;5072910;28;20078;-67
2023/04/30 05:58:16;;;;;;;9.82;3.17;;;;;;;;;;5096844;28;20040;-67
2023/04/30 06:00:42;;;;;;;12.85;3.60;;;;;;;;;;5094763;28;20036;-67
2023/04/30 06:03:08;;;;;;;13.15;4.00;;;;;;;;;;5102304;28;20069;-67
2023/04/30 06:05:34;;;;;;;14.82;3.63;;;;;;;;;;5087665;28;20153;-67
2023/04/30 06:08:00;;;;;;;16.75;4.40;;;;;;;;;;5084539;28;20078;-67
2023/04/30 06:10:27;;;;;;;14.45;3.08;;;;;;;;;;5098072;28;20032;-67
2023/04/30 06:12:53;;;;;;;11.43;3.80;;;;;;;;;;5077160;28;20078;-67
2023/04/30 06:15:19;;;;;;;18.00;4.30;;;;;;;;;;5100292;28;20039;-67
2023/04/30 06:17:45;;;;;;;12.57;3.83;;;;;;;;;;5107658;28;20122;-68
2023/04/30 06:20:13;;;;;;;16.30;3.60;;;;;;;;;;5101265;28;20508;-67
2023/04/30 06:22:40;;;;;;;12.57;3.75;;;;;;;;;;5097413;28;20055;-67
2023/04/30 06:25:06;;;;;;;11.05;3.75;;;;;;;;;;5099177;28;20039;-68
2023/04/30 06:27:32;;;;;;;12.60;3.95;;;;;;;;;;5100408;27;20100;-66
2023/04/30 06:29:59;;;;;;;16.60;5.07;;;;;;;;;;5103845;28;20056;-75
2023/04/30 06:32:26;;;;;;;13.15;4.03;;;;;;;;;;5062680;28;20036;-67
2023/04/30 06:34:52;;;;;;;11.75;4.55;;;;;;;;;;5103214;28;20102;-67
2023/04/30 06:37:18;;;;;;;16.10;4.53;;;;;;;;;;5108127;28;20039;-68
2023/04/30 06:39:44;;;;;;;9.25;3.83;;;;;;;;;;5083884;28;20127;-68
2023/04/30 06:42:10;;;;;;;14.60;4.75;;;;;;;;;;5101375;28;20119;-68
2023/04/30 06:44:36;;;;;;;12.25;4.20;;;;;;;;;;5098349;28;20447;-68
2023/04/30 06:47:02;;;;;;;12.15;3.55;;;;;;;;;;5097982;28;20123;-68
2023/04/30 06:49:29;;;;;;;13.07;3.90;;;;;;;;;;5093120;27;20039;-75
2023/04/30 06:51:57;;;;;;;12.95;3.35;;;;;;;;;;5078518;28;20040;-68
2023/04/30 06:54:25;;;;;;;11.00;3.70;;;;;;;;;;5099546;27;20115;-67
2023/04/30 06:56:51;;;;;;;12.05;3.42;;;;;;;;;;5092324;28;20100;-67
2023/04/30 06:59:17;;;;;;;14.25;3.28;;;;;;;;;;5082322;28;20039;-67
2023/04/30 07:01:43;;;;;;;12.30;4.50;;;;;;;;;;5080945;28;20055;-67
2023/04/30 07:04:10;;;;;;;10.80;4.10;;;;;;;;;;5083594;28;20126;-67
2023/04/30 07:06:36;;;;;;;14.63;3.90;;;;;;;;;;5096755;27;20044;-67
2023/04/30 07:09:02;;;;;;;16.00;3.78;;;;;;;;;;5075625;28;20508;-67
2023/04/30 07:11:29;;;;;;;12.73;3.63;;;;;;;;;;5093081;27;20135;-68
2023/04/30 07:13:55;;;;;;;12.48;3.58;;;;;;;;;;5092133;27;20399;-68
2023/04/30 07:16:21;;;;;;;15.27;3.50;;;;;;;;;;5092949;27;20043;-68
2023/04/30 07:18:48;;;;;;;17.25;3.63;;;;;;;;;;5076526;28;21513;-68
2023/04/30 07:21:14;;;;;;;11.77;3.28;;;;;;;;;;5076078;28;20054;-68
2023/04/30 07:23:42;;;;;;;9.45;2.83;;;;;;;;;;5088350;28;20036;-68
2023/04/30 07:26:09;;;;;;;8.32;3.00;;;;;;;;;;5090230;27;20055;-68
2023/04/30 07:28:35;;;;;;;11.23;2.90;;;;;;;;;;5092265;28;20047;-68
2023/04/30 07:31:01;;;;;;;10.52;3.70;;;;;;;;;;5091960;27;20391;-66
2023/04/30 07:33:28;;;;;;;11.13;3.15;;;;;;;;;;5079667;28;20129;-68
2023/04/30 07:35:55;;;;;;;14.35;4.13;;;;;;;;;;5098896;27;20079;-67
2023/04/30 07:38:22;;;;;;;11.98;3.55;;;;;;;;;;5096232;27;20044;-67
2023/04/30 07:40:48;;;;;;;18.42;3.80;;;;;;;;;;5102437;28;20103;-67
2023/04/30 07:43:14;;;;;;;14.73;4.00;;;;;;;;;;5098615;28;20048;-68
2023/04/30 07:45:41;;;;;;;9.98;2.85;;;;;;;;;;5097022;27;20791;-66
2023/04/30 07:48:07;;;;;;;12.57;3.88;;;;;;;;;;5097269;27;20048;-68
2023/04/30 07:50:33;;;;;;;12.55;3.88;;;;;;;;;;5078536;27;20048;-68
2023/04/30 07:53:00;;;;;;;11.43;3.95;;;;;;;;;;5097591;27;20067;-68
2023/04/30 07:55:26;;;;;;;16.20;3.55;;;;;;;;;;5100446;27;20055;-68
2023/04/30 07:57:52;;;;;;;10.77;3.53;;;;;;;;;;5097218;27;20173;-68
2023/04/30 08:00:18;;;;;;;15.82;4.70;;;;;;;;;;5100535;27;20032;-68
2023/04/30 08:02:46;;;;;;;10.20;3.38;;;;;;;;;;5105216;27;20040;-68
2023/04/30 08:05:13;;;;;;;15.60;3.75;;;;;;;;;;5101400;28;20055;-68
2023/04/30 08:07:40;;;;;;;12.18;3.95;;;;;;;;;;5096128;28;20047;-68
2023/04/30 08:10:06;;;;;;;13.05;4.00;;;;;;;;;;5099279;27;20087;-67
2023/04/30 08:12:36;;;;;;;11.75;3.47;;;;;;;;;;5074225;28;20197;-68
2023/04/30 08:15:03;;;;;;;17.67;4.22;;;;;;;;;;5101754;28;20035;-68
2023/04/30 08:17:30;;;;;;;15.43;4.15;;;;;;;;;;5085793;28;20116;-68
2023/04/30 08:19:56;;;;;;;12.93;4.03;;;;;;;;;;5105272;27;20039;-68
2023/04/30 08:22:22;;;;;;;13.60;4.28;;;;;;;;;;5105383;27;20050;-68
2023/04/30 08:24:49;;;;;;;11.93;3.97;;;;;;;;;;5081395;28;20639;-68
2023/04/30 08:27:15;;;;;;;13.18;3.75;;;;;;;;;;5065787;27;20168;-68
2023/04/30 08:29:41;;;;;;;16.08;4.85;;;;;;;;;;5080019;28;20210;-68
2023/04/30 08:32:08;;;;;;;11.73;3.58;;;;;;;;;;5100955;27;20083;-68
2023/04/30 08:34:35;;;;;;;11.25;3.28;;;;;;;;;;5099841;28;20040;-68
2023/04/30 08:37:01;;;;;;;16.73;4.95;;;;;;;;;;5098120;27;20093;-68
2023/04/30 08:39:27;;;;;;;16.30;4.20;;;;;;;;;;5083132;28;20552;-68
2023/04/30 08:41:55;;;;;;;13.80;4.32;;;;;;;;;;5086318;28;20366;-68
2023/04/30 08:44:22;;;;;;;15.43;3.80;;;;;;;;;;5083946;27;20497;-68
2023/04/30 08:46:53;;;;;;;11.43;3.45;;;;;;;;;;5103638;28;20402;-68
2023/04/30 08:49:19;;;;;;;15.10;3.78;;;;;;;;;;5101258;27;20035;-68
2023/04/30 08:51:46;;;;;;;15.15;4.68;;;;;;;;;;5102299;27;20054;-68
2023/04/30 08:54:13;;;;;;;16.30;4.40;;;;;;;;;;5099985;28;20039;-68
2023/04/30 08:56:40;;;;;;;12.25;3.55;;;;;;;;;;5085252;28;20059;-68
2023/04/30 08:59:06;;;;;;;12.23;3.00;;;;;;;;;;5105346;27;20031;-68
2023/04/30 09:01:34;;;;;;;11.30;3.83;;;;;;;;;;5102105;27;20097;-68
2023/04/30 09:04:02;;;;;;;12.20;3.22;;;;;;;;;;5104623;28;20040;-68
2023/04/30 09:06:28;;;;;;;13.48;3.83;;;;;;;;;;5085492;28;20483;-68
2023/04/30 09:08:54;;;;;;;10.18;3.13;;;;;;;;;;5087597;28;20514;-68
2023/04/30 09:11:22;;;;;;;18.98;4.07;;;;;;;;;;5104528;28;20510;-68
2023/04/30 09:13:49;;;;;;;13.80;4.28;;;;;;;;;;5105029;28;20043;-68
2023/04/30 09:16:15;;;;;;;13.52;3.33;;;;;;;;;;5103772;28;20397;-68
2023/04/30 09:18:42;;;;;;;14.40;3.47;;;;;;;;;;5101331;27;20044;-69
2023/04/30 09:21:08;;;;;;;10.32;3.05;;;;;;;;;;5096220;28;20137;-68
2023/04/30 09:23:34;;;;;;;14.35;3.03;;;;;;;;;;5090150;27;20044;-68
2023/04/30 09:26:00;;;;;;;12.43;3.67;;;;;;;;;;5096450;27;20092;-68
2023/04/30 09:28:27;;;;;;;11.80;3.50;;;;;;;;;;5082599;28;20040;-68
2023/04/30 09:30:55;;;;;;;14.63;3.83;;;;;;;;;;5089131;28;20681;-68
2023/04/30 09:33:22;;;;;;;14.15;3.78;;;;;;;;;;5100318;28;20525;-68
2023/04/30 09:35:48;;;;;;;13.68;3.10;;;;;;;;;;5097611;28;20092;-68
2023/04/30 09:38:26;;;;;;;11.15;3.05;;;;;;;;;;5107021;28;20130;-68
2023/04/30 09:40:52;;;;;;;10.80;3.08;;;;;;;;;;5082493;28;20096;-68
2023/04/30 09:43:18;;;;;;;13.15;3.33;;;;;;;;;;5098663;28;20421;-68
2023/04/30 09:45:51;;;;;;;8.48;2.72;;;;;;;;;;5100426;28;20036;-68
2023/04/30 09:48:20;;;;;;;10.60;3.20;;;;;;;;;;5104107;28;20039;-68
2023/04/30 09:50:46;;;;;;;10.27;2.97;;;;;;;;;;5083082;28;20325;-68
2023/04/30 09:53:13;;;;;;;12.95;3.88;;;;;;;;;;5084635;28;20059;-68
2023/04/30 09:55:42;;;;;;;11.43;2.80;;;;;;;;;;5084185;28;20094;-68
2023/04/30 09:58:09;;;;;;;13.30;3.53;;;;;;;;;;5104984;27;20036;-68
2023/04/30 10:00:36;;;;;;;8.60;3.03;;;;;;;;;;5080842;28;20123;-68
2023/04/30 10:03:09;;;;;;;17.42;3.35;;;;;;;;;;5098414;28;20064;-68
2023/04/30 10:05:38;;;;;;;11.32;2.70;;;;;;;;;;5097341;27;20154;-68
2023/04/30 10:08:07;;;;;;;9.45;2.80;;;;;;;;;;5102205;28;20343;-68
2023/04/30 10:10:33;;;;;;;9.85;2.75;;;;;;;;;;5100944;28;20088;-68
2023/04/30 10:13:03;;;;;;;11.73;2.80;;;;;;;;;;5094287;27;20048;-68
2023/04/30 10:15:38;;;;;;;12.73;3.08;;;;;;;;;;5099512;27;20055;-68
2023/04/30 10:18:06;;;;;;;8.20;2.78;;;;;;;;;;5084383;27;20046;-68
2023/04/30 10:20:35;;;;;;;11.50;2.90;;;;;;;;;;5082018;28;20043;-68
2023/04/30 10:23:02;;;;;;;10.85;3.00;;;;;;;;;;5080996;28;20044;-68
2023/04/30 10:25:28;;;;;;;7.07;3.10;;;;;;;;;;5083158;28;20132;-69
2023/04/30 10:27:54;;;;;;;9.13;3.22;;;;;;;;;;5104166;27;20213;-68
2023/04/30 10:30:21;;;;;;;10.32;3.17;;;;;;;;;;5099321;27;20058;-68
2023/04/30 10:33:04;;;;;;;8.63;3.15;;;;;;;;;;5100233;27;20134;-69
2023/04/30 10:35:34;;;;;;;9.63;2.65;;;;;;;;;;5084691;27;20444;-68
2023/04/30 10:38:12;;;;;;;10.25;2.38;;;;;;;;;;5101707;28;20101;-69
2023/04/30 10:40:38;;;;;;;7.85;2.67;;;;;;;;;;5099932;27;20047;-69
2023/04/30 10:43:04;;;;;;;9.20;2.33;;;;;;;;;;5085293;27;20124;-68
2023/04/30 10:45:35;;;;;;;8.43;2.40;;;;;;;;;;5102782;27;20040;-69
2023/04/30 10:48:02;;;;;;;7.03;2.47;;;;;;;;;;5082956;28;20051;-68
2023/04/30 10:50:29;;;;;;;5.60;2.10;;;;;;;;;;5085658;28;20134;-68
2023/04/30 10:53:03;;;;;;;6.47;2.30;;;;;;;;;;5104781;27;20447;-69
2023/04/30 10:55:30;;;;;;;9.38;2.33;;;;;;;;;;5081749;28;20047;-69
2023/04/30 10:57:57;;;;;;;7.55;2.13;;;;;;;;;;5099494;27;20071;-69
2023/04/30 11:00:30;;;;;;;8.93;2.45;;;;;;;;;;5107099;27;20218;-69
2023/04/30 11:02:56;;;;;;;;;;;;;;;;;;5102379;27;20126;-69
2023/04/30 11:05:34;;;;;;;7.03;2.30;;;;;;;;;;5099883;27;19920;-69
2023/04/30 11:08:00;;;;;;;5.50;2.00;;;;;;;;;;5083921;27;20051;-69
2023/04/30 11:10:27;;;;;;;10.30;2.42;;;;;;;;;;5100368;27;20040;-69
2023/04/30 11:12:54;;;;;;;5.40;2.17;;;;;;;;;;5099937;27;20071;-68
2023/04/30 11:15:21;;;;;;;5.05;2.00;;;;;;;;;;5101124;27;20359;-69
2023/04/30 11:17:48;;;;;;;7.07;1.95;;;;;;;;;;5101118;27;20052;-69
2023/04/30 11:20:19;;;;;;;7.07;2.38;;;;;;;;;;5101976;27;20031;-68
2023/04/30 11:22:45;;;;;;;6.70;2.20;;;;;;;;;;5100534;28;20047;-69
2023/04/30 11:25:12;;;;;;;8.98;2.50;;;;;;;;;;5079470;28;20055;-68
2023/04/30 11:27:41;;;;;;;6.38;1.88;;;;;;;;;;5099258;27;20096;-69
2023/04/30 11:30:12;;;;;;;5.68;1.50;;;;;;;;;;5075603;28;20518;-69
2023/04/30 11:32:39;;;;;;;5.65;1.90;;;;;;;;;;5082318;28;20052;-69
2023/04/30 11:35:05;;;;;;;4.22;1.45;;;;;;;;;;5095594;27;20399;-69
2023/04/30 11:37:34;;;;;;;5.45;1.67;;;;;;;;;;5097237;27;20352;-68
2023/04/30 11:40:01;;;;;;;3.30;1.38;;;;;;;;;;5096173;27;20372;-69
2023/04/30 11:42:29;;;;;;;3.42;1.30;;;;;;;;;;5080738;28;20052;-69
2023/04/30 11:45:02;;;;;;;4.38;1.63;;;;;;;;;;5095551;27;21333;-68
2023/04/30 11:47:37;;;;;;;6.13;1.70;;;;;;;;;;5079002;28;20603;-68
2023/04/30 11:50:04;;;;;;;6.05;1.60;;;;;;;;;;5078800;28;21271;-69
2023/04/30 11:52:30;;;;;;;2.90;1.10;;;;;;;;;;5093102;27;20399;-69
2023/04/30 11:54:56;;;;;;;3.53;1.58;;;;;;;;;;5094425;27;20051;-69
2023/04/30 11:57:22;;;;;;;6.20;1.52;;;;;;;;;;5104222;27;20545;-68
2023/04/30 11:59:49;;;;;;;4.70;1.90;;;;;;;;;;5103773;27;20494;-69
2023/04/30 12:02:16;;;;;;;3.10;1.40;;;;;;;;;;5098235;27;20422;-69
2023/04/30 12:04:44;;;;;;;5.45;1.60;;;;;;;;;;5099583;27;20036;-68
2023/04/30 12:07:10;;;;;;;4.57;1.77;;;;;;;;;;5099573;27;20559;-69
2023/04/30 12:09:51;;;;;;;4.47;1.50;;;;;;;;;;5079624;28;20046;-69
2023/04/30 12:12:26;;;;;;;4.15;1.60;;;;;;;;;;5080809;28;20117;-68
2023/04/30 12:14:52;;;;;;;4.35;1.20;;;;;;;;;;5086843;28;20067;-69
2023/04/30 12:17:37;;;;;;;5.10;1.80;;;;;;;;;;5088691;27;20445;-68
2023/04/30 12:20:04;;;;;;;4.82;1.95;;;;;;;;;;5101058;28;20035;-68
2023/04/30 12:22:30;;;;;;;3.70;1.45;;;;;;;;;;5085287;27;20055;-68
2023/04/30 12:24:56;;;;;;;4.57;1.30;;;;;;;;;;5084648;28;20071;-68
2023/04/30 12:27:23;;;;;;;4.57;1.30;;;;;;;;;;5098683;27;20043;-66
2023/04/30 12:29:53;;;;;;;4.82;1.42;;;;;;;;;;5094987;27;20048;-67
2023/04/30 12:32:20;;;;;;;3.17;1.40;;;;;;;;;;5073970;28;20511;-66
2023/04/30 12:34:47;;;;;;;4.70;1.42;;;;;;;;;;5092961;27;20138;-67
2023/04/30 12:37:16;;;;;;;4.57;1.30;;;;;;;;;;5090740;27;20437;-68
2023/04/30 12:39:42;;;;;;;4.63;1.10;;;;;;;;;;5070541;28;20097;-68
2023/04/30 12:42:09;;;;;;;4.60;1.60;;;;;;;;;;5087728;27;20066;-68
2023/04/30 12:44:43;;;;;;;3.90;1.35;;;;;;;;;;5071438;28;20058;-68
2023/04/30 12:47:10;;;;;;;3.75;1.35;;;;;;;;;;5094057;28;20059;-68
2023/04/30 12:49:36;;;;;;;5.85;1.52;;;;;;;;;;5094731;27;20175;-68
2023/04/30 12:52:07;;;;;;;3.95;1.33;;;;;;;;;;5099978;28;20032;-68
2023/04/30 12:54:33;;;;;;;4.07;1.23;;;;;;;;;;5097139;28;20051;-68
2023/04/30 12:57:02;;;;;;;2.55;1.08;;;;;;;;;;5079704;28;20054;-68
2023/04/30 12:59:28;;;;;;;3.33;1.20;;;;;;;;;;5081731;28;20194;-68
2023/04/30 13:01:55;;;;;;;4.97;1.30;;;;;;;;;;5097575;28;20072;-68
2023/04/30 13:04:21;;;;;;;3.47;1.20;;;;;;;;;;5090744;27;20546;-68
2023/04/30 13:06:48;;;;;;;3.72;1.20;;;;;;;;;;5093932;28;20058;-68
2023/04/30 13:09:14;;;;;;;4.13;1.30;;;;;;;;;;5071054;28;20127;-68
2023/04/30 13:11:41;;;;;;;4.93;1.50;;;;;;;;;;5071073;27;20402;-68
2023/04/30 13:14:09;;;;;;;3.83;1.42;;;;;;;;;;5071848;28;20047;-68
2023/04/30 13:16:35;;;;;;;4.53;1.35;;;;;;;;;;5089867;27;20044;-68
2023/04/30 13:19:01;;;;;;;4.07;1.25;;;;;;;;;;5071934;28;20047;-69
2023/04/30 13:21:27;;;;;;;6.50;1.42;;;;;;;;;;5073244;28;20066;-68
2023/04/30 13:23:53;;;;;;;4.28;1.33;;;;;;;;;;5077369;28;20040;-68
2023/04/30 13:26:21;;;;;;;3.63;1.45;;;;;;;;;;5071927;28;20079;-68
2023/04/30 13:28:47;;;;;;;4.60;1.20;;;;;;;;;;5098491;28;20057;-68
2023/04/30 13:31:13;;;;;;;3.33;1.40;;;;;;;;;;5078922;28;20057;-68
2023/04/30 13:33:39;;;;;;;4.35;1.20;;;;;;;;;;5079331;28;20055;-68
2023/04/30 13:36:05;;;;;;;6.45;1.17;;;;;;;;;;5092233;28;20452;-68
2023/04/30 13:38:31;;;;;;;4.30;1.40;;;;;;;;;;5096319;28;20483;-68
2023/04/30 13:40:58;;;;;;;4.70;1.70;;;;;;;;;;5094147;28;20043;-68
2023/04/30 13:43:24;;;;;;;5.90;1.67;;;;;;;;;;5090086;28;20101;-66
2023/04/30 13:45:50;;;;;;;22.63;1.63;;;;;;;;;;5090273;28;20036;-66
2023/04/30 13:48:16;;;;;;;6.97;1.67;;;;;;;;;;5091869;28;20050;-66
2023/04/30 13:50:42;;;;;;;4.50;1.42;;;;;;;;;;5088196;28;20174;-66
2023/04/30 13:53:08;;;;;;;6.90;2.25;;;;;;;;;;5091024;28;20413;-67
2023/04/30 13:55:35;;;;;;;5.55;2.03;;;;;;;;;;5078354;28;20048;-66
2023/04/30 13:58:01;;;;;;;5.80;1.73;;;;;;;;;;5092665;28;20044;-67
2023/04/30 14:00:28;;;;;;;6.40;2.13;;;;;;;;;;5089237;28;20089;-66
2023/04/30 14:02:54;;;;;;;9.20;2.25;;;;;;;;;;5098001;28;20054;-66
2023/04/30 14:05:20;;;;;;;5.10;1.85;;;;;;;;;;5076874;28;20383;-66
2023/04/30 14:07:46;;;;;;;5.10;1.48;;;;;;;;;;5096630;28;20477;-66
2023/04/30 14:10:13;;;;;;;4.10;1.92;;;;;;;;;;5071334;28;20067;-66
2023/04/30 14:12:39;;;;;;;6.30;1.83;;;;;;;;;;5090996;28;20541;-66
2023/04/30 14:15:05;;;;;;;6.40;2.13;;;;;;;;;;5096831;28;20032;-66
2023/04/30 14:17:31;;;;;;;5.35;1.98;;;;;;;;;;5073921;28;20270;-66
2023/04/30 14:19:57;;;;;;;5.78;1.98;;;;;;;;;;5092433;28;20119;-66
2023/04/30 14:22:24;;;;;;;4.25;1.58;;;;;;;;;;5070434;28;20047;-66
2023/04/30 14:24:51;;;;;;;5.55;2.03;;;;;;;;;;5090695;28;20364;-67
2023/04/30 14:27:17;;;;;;;7.40;2.20;;;;;;;;;;5074702;28;20059;-66
2023/04/30 14:29:44;;;;;;;6.78;2.25;;;;;;;;;;5069847;28;20040;-66
2023/04/30 14:32:13;;;;;;;7.45;1.80;;;;;;;;;;5091866;28;20054;-67
2023/04/30 14:34:39;;;;;;;5.22;1.63;;;;;;;;;;5092018;28;20070;-67